createdAt,value
2019-03-26T00:01:39.810Z,96.80
2019-03-26T00:04:08.342Z,97.60
2019-03-26T00:06:37.836Z,97.10
2019-03-26T00:09:08.768Z,97.00
2019-03-26T00:11:37.880Z,96.80
2019-03-26T00:14:06.299Z,96.80
2019-03-26T00:16:34.802Z,96.90
2019-03-26T00:19:03.131Z,97.10
2019-03-26T00:21:31.351Z,96.80
2019-03-26T00:23:59.733Z,96.90
2019-03-26T00:26:28.129Z,97.00
2019-03-26T00:28:56.352Z,97.00
2019-03-26T00:31:24.759Z,97.00
2019-03-26T00:33:53.044Z,97.00
2019-03-26T00:36:21.431Z,97.20
2019-03-26T00:38:49.789Z,97.20
2019-03-26T00:41:18.342Z,97.20
2019-03-26T00:43:46.605Z,97.30
2019-03-26T00:46:14.815Z,97.20
2019-03-26T00:48:43.318Z,97.30
2019-03-26T00:51:11.586Z,97.40
2019-03-26T00:53:40.111Z,97.40
2019-03-26T00:56:08.518Z,97.50
2019-03-26T00:58:36.850Z,97.40
2019-03-26T01:01:05.202Z,97.40
2019-03-26T01:03:33.539Z,97.40
2019-03-26T01:06:01.740Z,97.40
2019-03-26T01:08:30.143Z,97.40
2019-03-26T01:10:58.402Z,97.50
2019-03-26T01:13:26.547Z,97.50
2019-03-26T01:15:54.801Z,97.80
2019-03-26T01:18:23.051Z,97.80
2019-03-26T01:20:51.373Z,97.80
2019-03-26T01:23:19.663Z,97.80
2019-03-26T01:25:47.971Z,98.10
2019-03-26T01:28:16.151Z,98.20
2019-03-26T01:30:44.491Z,98.30
2019-03-26T01:33:12.944Z,98.40
2019-03-26T01:35:41.272Z,98.40
2019-03-26T01:38:09.793Z,98.40
2019-03-26T01:40:38.142Z,98.40
2019-03-26T01:43:06.438Z,98.50
2019-03-26T01:45:34.772Z,98.70
2019-03-26T01:48:03.256Z,98.80
2019-03-26T01:50:31.385Z,99.00
2019-03-26T01:52:59.572Z,99.10
2019-03-26T01:55:27.879Z,99.20
2019-03-26T01:57:56.191Z,99.50
2019-03-26T02:00:24.694Z,99.50
2019-03-26T02:02:52.834Z,99.70
2019-03-26T02:05:21.136Z,99.60
2019-03-26T02:07:49.498Z,99.80
2019-03-26T02:10:17.740Z,99.80
2019-03-26T02:12:48.640Z,99.70
2019-03-26T02:15:33.020Z,99.70
2019-03-26T02:18:01.878Z,99.70
2019-03-26T02:20:30.603Z,99.90
2019-03-26T02:22:59.166Z,99.90
2019-03-26T02:25:28.437Z,99.90
2019-03-26T02:27:57.229Z,99.80
2019-03-26T02:30:25.645Z,99.80
2019-03-26T02:32:54.945Z,99.80
2019-03-26T02:35:23.418Z,99.80
2019-03-26T02:37:52.134Z,99.90
2019-03-26T02:40:20.569Z,99.90
2019-03-26T02:42:48.775Z,99.90
2019-03-26T02:45:17.067Z,99.90
2019-03-26T02:47:45.710Z,99.90
2019-03-26T02:50:14.144Z,99.90
2019-03-26T02:52:42.600Z,99.90
2019-03-26T02:55:11.004Z,99.90
2019-03-26T02:57:39.328Z,99.90
2019-03-26T03:00:08.918Z,99.90
2019-03-26T03:02:37.382Z,99.90
2019-03-26T03:05:05.865Z,99.90
2019-03-26T03:07:34.258Z,99.90
2019-03-26T03:10:02.794Z,99.90
2019-03-26T03:12:31.323Z,99.90
2019-03-26T03:14:59.925Z,99.90
2019-03-26T03:17:28.341Z,99.90
2019-03-26T03:19:56.767Z,99.90
2019-03-26T03:22:25.201Z,99.90
2019-03-26T03:24:53.493Z,99.90
2019-03-26T03:27:21.823Z,99.90
2019-03-26T03:29:50.348Z,99.90
2019-03-26T03:32:18.720Z,99.90
2019-03-26T03:34:46.991Z,99.90
2019-03-26T03:37:15.478Z,99.90
2019-03-26T03:39:43.932Z,99.90
2019-03-26T03:42:12.304Z,99.90
2019-03-26T03:44:40.719Z,99.90
2019-03-26T03:47:11.583Z,99.90
2019-03-26T03:49:40.479Z,99.90
2019-03-26T03:52:10.704Z,99.90
2019-03-26T03:54:40.879Z,99.90
2019-03-26T03:57:10.909Z,99.90
2019-03-26T03:59:40.479Z,99.90
2019-03-26T04:02:08.854Z,99.90
2019-03-26T04:04:37.349Z,99.90
2019-03-26T04:07:05.608Z,99.90
2019-03-26T04:09:33.816Z,99.90
2019-03-26T04:12:02.285Z,99.90
2019-03-26T04:14:30.798Z,99.90
2019-03-26T04:16:59.087Z,99.90
2019-03-26T04:19:27.360Z,99.90
2019-03-26T04:21:55.679Z,99.90
2019-03-26T04:24:24.024Z,99.90
2019-03-26T04:26:52.221Z,99.90
2019-03-26T04:29:20.576Z,99.90
2019-03-26T04:31:49.121Z,99.90
2019-03-26T04:34:17.376Z,99.90
2019-03-26T04:36:45.513Z,99.90
2019-03-26T04:39:13.859Z,99.90
2019-03-26T04:41:41.967Z,99.90
2019-03-26T04:44:10.263Z,99.90
2019-03-26T04:46:38.540Z,99.90
2019-03-26T04:49:06.940Z,99.90
2019-03-26T04:51:35.357Z,99.90
2019-03-26T04:54:03.674Z,99.90
2019-03-26T04:56:32.007Z,99.90
2019-03-26T04:59:00.303Z,99.90
2019-03-26T05:01:28.633Z,99.90
2019-03-26T05:03:56.921Z,99.90
2019-03-26T05:06:37.425Z,99.90
2019-03-26T05:08:55.578Z,99.90
2019-03-26T05:11:25.807Z,99.90
2019-03-26T05:13:53.871Z,99.80
2019-03-26T05:16:22.109Z,99.80
2019-03-26T05:18:50.566Z,99.70
2019-03-26T05:21:18.821Z,99.70
2019-03-26T05:23:47.060Z,99.70
2019-03-26T05:26:15.252Z,99.40
2019-03-26T05:28:43.526Z,99.20
2019-03-26T05:31:11.919Z,99.10
2019-03-26T05:33:40.066Z,99.20
2019-03-26T05:36:08.226Z,99.50
2019-03-26T05:38:36.427Z,99.40
2019-03-26T05:41:05.423Z,99.30
2019-03-26T05:43:33.877Z,99.20
2019-03-26T05:46:13.599Z,99.40
2019-03-26T05:48:43.919Z,99.00
2019-03-26T05:51:12.071Z,98.80
2019-03-26T05:53:40.253Z,98.90
2019-03-26T05:56:08.670Z,98.60
2019-03-26T05:58:36.898Z,98.50
2019-03-26T06:01:05.147Z,98.60
2019-03-26T06:03:33.301Z,98.50
2019-03-26T06:06:02.137Z,98.40
2019-03-26T06:08:30.407Z,98.50
2019-03-26T06:10:58.725Z,98.40
2019-03-26T06:13:26.989Z,98.40
2019-03-26T06:15:55.237Z,97.90
2019-03-26T06:18:23.613Z,97.80
2019-03-26T06:20:51.889Z,97.80
2019-03-26T06:23:20.250Z,97.80
2019-03-26T06:25:48.602Z,97.70
2019-03-26T06:28:16.889Z,97.40
2019-03-26T06:30:45.132Z,97.30
2019-03-26T06:33:13.542Z,97.30
2019-03-26T06:35:41.788Z,97.70
2019-03-26T06:38:10.267Z,97.30
2019-03-26T06:40:38.407Z,97.20
2019-03-26T06:43:06.796Z,97.20
2019-03-26T06:45:34.954Z,97.20
2019-03-26T06:48:04.510Z,97.20
2019-03-26T06:50:33.239Z,96.90
2019-03-26T06:53:01.554Z,97.00
2019-03-26T06:55:29.857Z,96.70
2019-03-26T06:57:58.911Z,96.70
2019-03-26T07:00:32.275Z,96.30
2019-03-26T07:03:19.648Z,96.30
2019-03-26T07:05:48.974Z,95.80
2019-03-26T07:08:17.471Z,95.80
2019-03-26T07:10:45.944Z,95.70
2019-03-26T07:13:14.459Z,95.30
2019-03-26T07:15:42.981Z,95.40
2019-03-26T07:18:12.060Z,95.50
2019-03-26T07:20:40.227Z,95.20
2019-03-26T07:23:09.691Z,94.80
2019-03-26T07:25:38.301Z,94.80
2019-03-26T07:28:06.756Z,94.60
2019-03-26T07:30:43.089Z,94.50
2019-03-26T07:33:11.576Z,94.30
2019-03-26T07:35:40.234Z,94.00
2019-03-26T07:38:08.715Z,93.40
2019-03-26T07:40:36.992Z,91.50
2019-03-26T07:43:05.712Z,88.60
2019-03-26T07:45:34.137Z,84.50
2019-03-26T07:48:02.507Z,80.90
2019-03-26T07:50:31.499Z,80.00
2019-03-26T07:53:00.021Z,80.40
2019-03-26T07:55:28.358Z,80.40
2019-03-26T07:57:57.379Z,81.70
2019-03-26T08:00:36.150Z,78.20
2019-03-26T08:03:05.238Z,74.10
2019-03-26T08:05:33.827Z,73.80
2019-03-26T08:08:04.797Z,72.40
2019-03-26T08:10:39.986Z,68.50
2019-03-26T08:13:09.779Z,67.70
2019-03-26T08:15:38.879Z,68.90
2019-03-26T08:18:07.558Z,71.00
2019-03-26T08:20:35.795Z,71.00
2019-03-26T08:23:04.385Z,70.50
2019-03-26T08:25:34.031Z,72.40
2019-03-26T08:28:05.073Z,74.50
2019-03-26T08:30:33.164Z,76.50
2019-03-26T08:33:01.407Z,78.40
2019-03-26T08:35:29.687Z,78.70
2019-03-26T08:38:11.401Z,78.40
2019-03-26T08:40:28.103Z,71.00
2019-03-26T08:42:56.524Z,63.20
2019-03-26T08:45:24.892Z,57.10
2019-03-26T08:47:53.174Z,51.60
2019-03-26T08:50:21.626Z,47.50
2019-03-26T08:52:49.813Z,44.60
2019-03-26T08:55:18.016Z,41.70
2019-03-26T08:57:47.096Z,39.70
2019-03-26T09:00:15.656Z,39.00
2019-03-26T09:02:44.108Z,41.30
2019-03-26T09:05:12.890Z,41.60
2019-03-26T09:07:41.344Z,44.20
2019-03-26T09:10:10.480Z,45.50
2019-03-26T09:12:39.601Z,46.00
2019-03-26T09:15:08.954Z,42.10
2019-03-26T09:17:37.648Z,36.90
2019-03-26T09:20:07.701Z,34.90
2019-03-26T09:22:36.456Z,33.30
2019-03-26T09:25:06.942Z,33.90
2019-03-26T09:27:35.360Z,35.00
2019-03-26T09:30:07.210Z,37.90
2019-03-26T09:32:35.638Z,40.30
2019-03-26T09:35:04.892Z,42.80
2019-03-26T09:37:33.384Z,44.70
2019-03-26T09:40:01.642Z,46.10
2019-03-26T09:42:30.925Z,47.40
2019-03-26T09:44:59.275Z,47.80
2019-03-26T09:47:27.538Z,44.90
2019-03-26T09:49:55.908Z,41.10
2019-03-26T09:52:24.646Z,39.10
2019-03-26T09:54:53.071Z,38.50
2019-03-26T09:57:21.316Z,40.20
2019-03-26T09:59:50.801Z,42.30
2019-03-26T10:02:19.381Z,44.60
2019-03-26T10:04:47.537Z,45.80
2019-03-26T10:07:21.346Z,45.80
2019-03-26T10:09:45.951Z,43.10
2019-03-26T10:12:14.212Z,40.80
2019-03-26T10:14:42.618Z,40.50
2019-03-26T10:17:10.763Z,43.20
2019-03-26T10:19:39.128Z,46.10
2019-03-26T10:22:07.779Z,47.40
2019-03-26T10:24:36.427Z,45.60
2019-03-26T10:27:04.767Z,39.20
2019-03-26T10:29:33.078Z,35.10
2019-03-26T10:32:01.314Z,33.10
2019-03-26T10:34:29.587Z,31.30
2019-03-26T10:36:57.875Z,30.20
2019-03-26T10:39:26.247Z,33.40
2019-03-26T10:41:54.385Z,34.40
2019-03-26T10:44:22.532Z,35.10
2019-03-26T10:46:50.740Z,35.60
2019-03-26T10:49:19.107Z,35.80
2019-03-26T10:51:47.701Z,34.00
2019-03-26T10:54:17.275Z,33.50
2019-03-26T10:56:45.551Z,33.30
2019-03-26T10:59:13.953Z,33.90
2019-03-26T11:01:42.502Z,34.70
2019-03-26T11:04:11.155Z,35.00
2019-03-26T11:06:39.609Z,33.90
2019-03-26T11:09:20.072Z,31.30
2019-03-26T11:11:38.283Z,30.30
2019-03-26T11:14:06.581Z,29.80
2019-03-26T11:16:35.726Z,28.70
2019-03-26T11:19:04.327Z,29.80
2019-03-26T11:21:32.609Z,31.40
2019-03-26T11:24:01.882Z,33.90
2019-03-26T11:26:30.277Z,37.10
2019-03-26T11:28:59.929Z,39.90
2019-03-26T11:31:30.148Z,41.70
2019-03-26T11:33:58.491Z,42.30
2019-03-26T11:36:31.438Z,42.00
2019-03-26T11:38:59.986Z,39.80
2019-03-26T11:41:28.328Z,36.00
2019-03-26T11:43:56.585Z,33.40
2019-03-26T11:46:25.090Z,30.40
2019-03-26T11:48:53.440Z,29.50
2019-03-26T11:51:21.984Z,29.10
2019-03-26T11:53:50.499Z,27.30
2019-03-26T11:56:19.416Z,27.00
2019-03-26T11:58:48.013Z,26.10
2019-03-26T12:01:16.256Z,26.00
2019-03-26T12:03:45.217Z,24.70
2019-03-26T12:06:16.263Z,24.40
2019-03-26T12:08:44.901Z,23.50
2019-03-26T12:11:13.390Z,23.20
2019-03-26T12:13:41.542Z,22.80
2019-03-26T12:16:09.820Z,23.70
2019-03-26T12:18:38.178Z,25.10
2019-03-26T12:21:06.540Z,27.00
2019-03-26T12:23:35.000Z,28.10
2019-03-26T12:26:03.481Z,27.50
2019-03-26T12:28:31.791Z,25.80
2019-03-26T12:31:00.735Z,26.10
2019-03-26T12:33:29.106Z,26.50
2019-03-26T12:35:57.362Z,27.80
2019-03-26T12:38:25.644Z,29.00
2019-03-26T12:40:54.908Z,30.00
2019-03-26T12:43:23.588Z,30.40
2019-03-26T12:45:53.634Z,32.40
2019-03-26T12:48:21.831Z,34.10
2019-03-26T12:50:53.974Z,35.00
2019-03-26T12:53:23.409Z,36.90
2019-03-26T12:55:52.075Z,35.10
2019-03-26T12:58:30.950Z,31.30
2019-03-26T13:00:51.483Z,29.00
2019-03-26T13:03:20.191Z,28.10
2019-03-26T13:06:17.726Z,26.90
2019-03-26T13:08:46.329Z,27.20
2019-03-26T13:11:41.839Z,29.30
2019-03-26T13:14:11.387Z,30.20
2019-03-26T13:16:40.505Z,28.90
2019-03-26T13:19:09.455Z,27.60
2019-03-26T13:21:37.888Z,28.00
2019-03-26T13:24:11.470Z,28.10
2019-03-26T13:26:41.013Z,29.60
2019-03-26T13:29:10.421Z,32.00
2019-03-26T13:31:39.482Z,33.80
2019-03-26T13:34:09.538Z,35.20
2019-03-26T13:36:39.453Z,35.40
2019-03-26T13:39:09.641Z,36.90
2019-03-26T13:41:38.869Z,38.00
2019-03-26T13:44:07.826Z,38.20
2019-03-26T13:46:36.392Z,38.40
2019-03-26T13:49:05.251Z,39.10
2019-03-26T13:51:37.147Z,40.00
2019-03-26T13:54:06.420Z,40.70
2019-03-26T13:56:35.420Z,41.60
2019-03-26T13:59:05.589Z,42.50
2019-03-26T14:01:35.301Z,42.80
2019-03-26T14:04:03.965Z,43.40
2019-03-26T14:06:32.667Z,45.20
2019-03-26T14:09:00.987Z,45.00
2019-03-26T14:11:31.452Z,45.50
2019-03-26T14:14:00.277Z,45.40
2019-03-26T14:16:28.535Z,44.90
2019-03-26T14:18:57.059Z,43.60
2019-03-26T14:21:25.609Z,40.80
2019-03-26T14:23:54.295Z,38.10
2019-03-26T14:26:22.457Z,35.60
2019-03-26T14:28:51.063Z,35.40
2019-03-26T14:31:19.458Z,36.90
2019-03-26T14:33:47.669Z,36.80
2019-03-26T14:36:16.201Z,37.70
2019-03-26T14:38:45.480Z,38.60
2019-03-26T14:41:14.477Z,39.60
2019-03-26T14:43:42.895Z,39.70
2019-03-26T14:46:11.186Z,39.40
2019-03-26T14:48:42.009Z,40.20
2019-03-26T14:51:11.686Z,41.30
2019-03-26T14:53:40.174Z,42.30
2019-03-26T14:56:09.963Z,43.10
2019-03-26T14:58:38.277Z,43.80
2019-03-26T15:01:06.813Z,44.60
2019-03-26T15:03:36.587Z,45.20
2019-03-26T15:06:07.720Z,45.20
2019-03-26T15:08:36.682Z,45.60
2019-03-26T15:11:08.616Z,45.90
2019-03-26T15:13:37.928Z,46.30
2019-03-26T15:16:08.169Z,46.60
2019-03-26T15:18:36.665Z,46.80
2019-03-26T15:21:05.708Z,46.80
2019-03-26T15:23:35.956Z,47.70
2019-03-26T15:26:04.303Z,48.10
2019-03-26T15:28:32.738Z,48.30
2019-03-26T15:31:01.631Z,48.40
2019-03-26T15:33:29.916Z,48.90
2019-03-26T15:35:58.520Z,49.60
2019-03-26T15:38:27.343Z,50.90
2019-03-26T15:40:55.628Z,53.20
2019-03-26T15:43:23.983Z,54.90
2019-03-26T15:45:52.437Z,55.90
2019-03-26T15:48:21.944Z,57.30
2019-03-26T15:50:50.684Z,58.50
2019-03-26T15:53:20.071Z,58.40
2019-03-26T15:55:48.595Z,57.50
2019-03-26T15:58:16.885Z,57.50
2019-03-26T16:00:45.750Z,58.10
2019-03-26T16:03:15.017Z,58.30
2019-03-26T16:05:43.405Z,59.10
2019-03-26T16:08:11.984Z,59.40
2019-03-26T16:10:40.365Z,59.50
2019-03-26T16:13:08.670Z,60.20
2019-03-26T16:15:44.316Z,61.00
2019-03-26T16:18:08.354Z,61.50
2019-03-26T16:20:37.699Z,61.90
2019-03-26T16:23:06.006Z,60.50
2019-03-26T16:25:35.974Z,58.70
2019-03-26T16:28:06.743Z,58.70
2019-03-26T16:30:36.857Z,58.50
2019-03-26T16:33:10.459Z,58.20
2019-03-26T16:35:41.530Z,58.50
2019-03-26T16:38:10.031Z,58.70
2019-03-26T16:40:38.402Z,59.00
2019-03-26T16:43:08.229Z,59.50
2019-03-26T16:45:37.207Z,60.00
2019-03-26T16:48:05.695Z,60.70
2019-03-26T16:50:35.253Z,61.60
2019-03-26T16:53:11.145Z,61.40
2019-03-26T16:55:39.428Z,61.00
2019-03-26T16:58:07.978Z,61.70
2019-03-26T17:01:26.721Z,61.70
2019-03-26T17:03:55.149Z,62.00
2019-03-26T17:06:24.452Z,62.40
2019-03-26T17:08:53.659Z,62.70
2019-03-26T17:11:22.514Z,63.20
2019-03-26T17:13:50.933Z,63.20
2019-03-26T17:16:19.412Z,63.60
2019-03-26T17:18:48.093Z,65.00
2019-03-26T17:21:18.405Z,63.90
2019-03-26T17:23:46.517Z,63.90
2019-03-26T17:26:16.216Z,63.60
2019-03-26T17:28:44.604Z,63.90
2019-03-26T17:31:12.985Z,63.30
2019-03-26T17:33:41.395Z,63.50
2019-03-26T17:36:09.568Z,63.10
2019-03-26T17:38:37.906Z,63.20
2019-03-26T17:41:06.925Z,62.80
2019-03-26T17:43:35.061Z,62.90
2019-03-26T17:46:04.284Z,63.60
2019-03-26T17:48:32.795Z,63.40
2019-03-26T17:51:00.950Z,63.70
2019-03-26T17:53:31.608Z,64.00
2019-03-26T17:56:00.083Z,64.20
2019-03-26T17:58:29.032Z,63.70
2019-03-26T18:00:57.587Z,64.00
2019-03-26T18:03:27.147Z,64.90
2019-03-26T18:05:56.005Z,65.20
2019-03-26T18:08:25.029Z,65.40
2019-03-26T18:10:54.237Z,65.30
2019-03-26T18:13:22.618Z,65.70
2019-03-26T18:15:51.016Z,65.80
2019-03-26T18:18:19.886Z,66.10
2019-03-26T18:20:48.247Z,66.50
2019-03-26T18:23:16.497Z,66.10
2019-03-26T18:25:45.047Z,66.70
2019-03-26T18:28:13.327Z,67.00
2019-03-26T18:30:42.184Z,67.30
2019-03-26T18:33:10.560Z,67.20
2019-03-26T18:35:38.757Z,68.00
2019-03-26T18:38:07.300Z,70.30
2019-03-26T18:40:35.567Z,71.20
2019-03-26T18:43:04.171Z,71.60
2019-03-26T18:45:32.829Z,70.50
2019-03-26T18:48:02.388Z,69.50
2019-03-26T18:50:32.630Z,69.40
2019-03-26T18:53:01.301Z,69.90
2019-03-26T18:55:29.578Z,70.00
2019-03-26T18:57:57.928Z,70.10
2019-03-26T19:00:33.506Z,70.00
2019-03-26T19:03:02.617Z,70.20
2019-03-26T19:05:31.799Z,70.30
2019-03-26T19:08:00.174Z,70.20
2019-03-26T19:10:30.095Z,69.80
2019-03-26T19:12:58.738Z,70.20
2019-03-26T19:15:27.115Z,70.70
2019-03-26T19:17:56.310Z,71.40
2019-03-26T19:20:24.996Z,71.20
2019-03-26T19:22:53.599Z,72.10
2019-03-26T19:25:22.464Z,71.40
2019-03-26T19:27:52.611Z,71.60
2019-03-26T19:30:22.180Z,71.10
2019-03-26T19:32:50.575Z,71.20
2019-03-26T19:35:18.933Z,70.00
2019-03-26T19:37:47.892Z,69.60
2019-03-26T19:40:17.027Z,69.70
2019-03-26T19:42:46.246Z,69.70
2019-03-26T19:45:15.013Z,70.00
2019-03-26T19:47:43.392Z,70.40
2019-03-26T19:50:12.926Z,70.40
2019-03-26T19:52:41.247Z,70.60
2019-03-26T19:55:09.831Z,71.10
2019-03-26T19:57:38.456Z,71.40
2019-03-26T20:00:09.560Z,72.40
2019-03-26T20:02:39.505Z,74.00
2019-03-26T20:05:10.427Z,76.30
2019-03-26T20:07:42.577Z,78.90
2019-03-26T20:10:12.654Z,82.60
2019-03-26T20:12:41.310Z,85.10
2019-03-26T20:15:11.408Z,86.50
2019-03-26T20:17:40.000Z,87.70
2019-03-26T20:20:09.199Z,88.70
2019-03-26T20:22:37.585Z,90.90
2019-03-26T20:25:07.024Z,91.40
2019-03-26T20:27:35.637Z,91.80
2019-03-26T20:30:05.243Z,92.00
2019-03-26T20:32:33.886Z,92.20
2019-03-26T20:35:02.534Z,92.50
2019-03-26T20:37:30.790Z,92.70
2019-03-26T20:39:59.237Z,92.90
2019-03-26T20:42:27.531Z,92.80
2019-03-26T20:44:55.823Z,93.30
2019-03-26T20:47:24.534Z,93.40
2019-03-26T20:49:52.785Z,93.40
2019-03-26T20:52:20.938Z,93.40
2019-03-26T20:54:50.497Z,93.60
2019-03-26T20:57:50.477Z,93.60
2019-03-26T21:00:36.732Z,93.40
2019-03-26T21:03:10.891Z,93.40
2019-03-26T21:05:39.661Z,94.30
2019-03-26T21:08:08.198Z,93.30
2019-03-26T21:10:36.866Z,93.20
2019-03-26T21:13:50.985Z,93.00
2019-03-26T21:16:18.658Z,93.10
2019-03-26T21:18:47.560Z,93.10
2019-03-26T21:21:16.154Z,93.10
2019-03-26T21:23:57.350Z,93.30
2019-03-26T21:26:25.622Z,93.10
2019-03-26T21:28:53.966Z,93.30
2019-03-26T21:31:22.277Z,93.40
2019-03-26T21:33:50.764Z,93.50
2019-03-26T21:36:19.181Z,93.50
2019-03-26T21:38:47.520Z,93.50
2019-03-26T21:41:15.838Z,93.50
2019-03-26T21:43:44.584Z,93.60
2019-03-26T21:46:13.819Z,93.60
2019-03-26T21:48:42.261Z,93.60
2019-03-26T21:51:10.858Z,93.60
2019-03-26T21:53:39.023Z,93.60
2019-03-26T21:56:07.418Z,93.80
2019-03-26T21:58:35.672Z,93.50
2019-03-26T22:01:04.042Z,93.50
2019-03-26T22:03:32.417Z,93.60
2019-03-26T22:06:00.691Z,93.60
2019-03-26T22:08:29.099Z,93.50
2019-03-26T22:10:57.241Z,93.30
2019-03-26T22:13:25.597Z,93.20
2019-03-26T22:15:53.761Z,93.10
2019-03-26T22:18:22.411Z,92.90
2019-03-26T22:20:50.661Z,92.70
2019-03-26T22:23:20.154Z,92.60
2019-03-26T22:25:48.780Z,92.60
2019-03-26T22:28:17.020Z,92.60
2019-03-26T22:30:45.363Z,92.50
2019-03-26T22:33:13.562Z,92.20
2019-03-26T22:35:41.844Z,91.70
2019-03-26T22:38:10.017Z,91.40
2019-03-26T22:40:38.264Z,91.50
2019-03-26T22:43:06.784Z,91.50
2019-03-26T22:45:35.044Z,91.40
2019-03-26T22:48:03.714Z,91.20
2019-03-26T22:50:31.860Z,91.20
2019-03-26T22:53:00.545Z,91.30
2019-03-26T22:55:29.626Z,91.10
2019-03-26T22:57:58.084Z,91.20
2019-03-26T23:00:29.255Z,91.30
2019-03-26T23:02:59.609Z,91.20
2019-03-26T23:05:28.071Z,91.10
2019-03-26T23:07:56.572Z,91.20
2019-03-26T23:10:24.972Z,91.30
2019-03-26T23:12:53.271Z,91.30
2019-03-26T23:15:24.823Z,91.30
2019-03-26T23:17:53.251Z,91.30
2019-03-26T23:20:21.647Z,91.40
2019-03-26T23:22:49.872Z,91.60
2019-03-26T23:25:18.476Z,91.70
2019-03-26T23:27:46.953Z,91.80
2019-03-26T23:30:16.069Z,91.70
2019-03-26T23:32:44.456Z,91.70
2019-03-26T23:35:13.552Z,91.90
2019-03-26T23:37:42.035Z,91.90
2019-03-26T23:40:11.141Z,92.00
2019-03-26T23:42:40.043Z,92.00
2019-03-26T23:45:08.944Z,91.90
2019-03-26T23:47:37.387Z,92.10
2019-03-26T23:50:06.635Z,92.10
2019-03-26T23:52:35.146Z,92.40
2019-03-26T23:55:04.270Z,92.20
2019-03-26T23:57:32.543Z,92.20
